Time;durP1;ratioP1;P1;durP2;ratioP2;P2;SDS_P1;SDS_P2;PMS_P1;PMS_P2;Temp;Humidity;BMP_temperature;BMP_pressure;BME280_temperature;BME280_humidity;BME280_pressure;Samples;Min_cycle;Max_cycle;Signal;HPM_P1;HPM_P2
2023/04/20 00:01:36;;;;;;;4.50;4.10;;;;;;;;;;5029574;28;20183;-77
2023/04/20 00:04:02;;;;;;;4.10;3.60;;;;;;;;;;5032925;28;20180;-77
2023/04/20 00:06:31;;;;;;;4.23;3.83;;;;;;;;;;5028026;28;20184;-77
2023/04/20 00:08:57;;;;;;;4.70;4.20;;;;;;;;;;5024571;28;20274;-77
2023/04/20 00:11:22;;;;;;;5.03;4.13;;;;;;;;;;5019884;28;20288;-77
2023/04/20 00:13:47;;;;;;;6.07;4.07;;;;;;;;;;5028081;28;20188;-77
2023/04/20 00:16:12;;;;;;;4.30;3.77;;;;;;;;;;5030537;28;20192;-77
2023/04/20 00:18:39;;;;;;;5.00;3.80;;;;;;;;;;5029512;28;20242;-77
2023/04/20 00:21:04;;;;;;;6.20;4.40;;;;;;;;;;5027436;28;20190;-77
2023/04/20 00:23:29;;;;;;;4.83;3.90;;;;;;;;;;5032397;28;20184;-77
2023/04/20 00:25:55;;;;;;;3.90;3.50;;;;;;;;;;5025603;28;20229;-77
2023/04/20 00:28:20;;;;;;;4.77;4.27;;;;;;;;;;5020077;28;20190;-77
2023/04/20 00:30:45;;;;;;;4.50;3.97;;;;;;;;;;5029096;28;20220;-77
2023/04/20 00:33:10;;;;;;;6.63;4.20;;;;;;;;;;5023182;28;20305;-77
2023/04/20 00:35:36;;;;;;;5.57;3.73;;;;;;;;;;5022431;28;20188;-77
2023/04/20 00:38:01;;;;;;;5.30;4.80;;;;;;;;;;5023016;28;20270;-77
2023/04/20 00:40:26;;;;;;;7.00;4.30;;;;;;;;;;5027871;28;20204;-77
2023/04/20 00:42:51;;;;;;;5.67;4.83;;;;;;;;;;5025929;28;20255;-77
2023/04/20 00:45:17;;;;;;;4.37;3.87;;;;;;;;;;5029864;28;20179;-77
2023/04/20 00:47:42;;;;;;;5.27;3.77;;;;;;;;;;5032043;28;20237;-77
2023/04/20 00:50:08;;;;;;;4.50;4.10;;;;;;;;;;5025928;28;20172;-77
2023/04/20 00:52:33;;;;;;;4.70;4.13;;;;;;;;;;5028789;28;20191;-77
2023/04/20 00:54:58;;;;;;;9.63;4.77;;;;;;;;;;5025458;28;20183;-77
2023/04/20 00:57:25;;;;;;;4.97;4.23;;;;;;;;;;5024817;28;20297;-77
2023/04/20 00:59:50;;;;;;;5.63;4.47;;;;;;;;;;5033006;28;20210;-77
2023/04/20 01:02:17;;;;;;;5.00;4.27;;;;;;;;;;5027933;28;20203;-77
2023/04/20 01:04:42;;;;;;;6.70;3.97;;;;;;;;;;5030306;28;20178;-77
2023/04/20 01:07:07;;;;;;;4.17;3.77;;;;;;;;;;5020534;28;20179;-77
2023/04/20 01:09:32;;;;;;;4.83;3.77;;;;;;;;;;5018630;28;20183;-77
2023/04/20 01:11:57;;;;;;;5.70;4.50;;;;;;;;;;5028909;28;20190;-78
2023/04/20 01:14:23;;;;;;;4.43;4.03;;;;;;;;;;5016650;28;20184;-77
2023/04/20 01:16:48;;;;;;;5.03;4.33;;;;;;;;;;5027134;28;20178;-78
2023/04/20 01:19:13;;;;;;;6.80;4.00;;;;;;;;;;5026526;28;20210;-77
2023/04/20 01:21:39;;;;;;;6.20;4.70;;;;;;;;;;5026645;28;20273;-77
2023/04/20 01:24:05;;;;;;;8.13;4.53;;;;;;;;;;5017918;28;20230;-77
2023/04/20 01:26:30;;;;;;;6.17;4.00;;;;;;;;;;5022314;28;20183;-77
2023/04/20 01:28:55;;;;;;;5.17;4.23;;;;;;;;;;5020743;28;20183;-77
2023/04/20 01:31:21;;;;;;;6.40;4.33;;;;;;;;;;5024825;28;20190;-78
2023/04/20 01:33:46;;;;;;;5.03;4.23;;;;;;;;;;5023728;28;20219;-77
2023/04/20 01:36:11;;;;;;;6.40;4.13;;;;;;;;;;5023867;28;20187;-78
2023/04/20 01:38:37;;;;;;;6.43;4.93;;;;;;;;;;5018493;28;20183;-78
2023/04/20 01:41:03;;;;;;;5.00;4.30;;;;;;;;;;5026071;28;20171;-78
2023/04/20 01:43:29;;;;;;;6.70;4.77;;;;;;;;;;5026908;28;20185;-78
2023/04/20 01:45:54;;;;;;;5.30;3.90;;;;;;;;;;5022440;28;20179;-77
2023/04/20 01:48:19;;;;;;;4.97;3.93;;;;;;;;;;5016935;28;20185;-78
2023/04/20 01:50:44;;;;;;;5.73;4.70;;;;;;;;;;5025362;28;20187;-78
2023/04/20 01:53:12;;;;;;;5.70;5.10;;;;;;;;;;5021894;28;20279;-78
2023/04/20 01:55:38;;;;;;;4.93;4.30;;;;;;;;;;5025685;28;20175;-78
2023/04/20 01:58:03;;;;;;;5.33;4.50;;;;;;;;;;5020817;28;20175;-78
2023/04/20 02:00:28;;;;;;;5.43;4.40;;;;;;;;;;5019572;28;20288;-77
2023/04/20 02:02:53;;;;;;;5.07;4.57;;;;;;;;;;5033683;28;20194;-78
2023/04/20 02:05:19;;;;;;;6.03;4.57;;;;;;;;;;5017539;28;20193;-78
2023/04/20 02:07:44;;;;;;;5.87;4.33;;;;;;;;;;5021696;28;20181;-78
2023/04/20 02:10:09;;;;;;;5.23;4.47;;;;;;;;;;5020589;28;20265;-78
2023/04/20 02:12:35;;;;;;;5.93;4.57;;;;;;;;;;5031621;28;20206;-78
2023/04/20 02:15:00;;;;;;;5.50;4.73;;;;;;;;;;5029142;28;20278;-78
2023/04/20 02:17:25;;;;;;;8.33;4.67;;;;;;;;;;5025197;28;20235;-77
2023/04/20 02:19:51;;;;;;;4.97;4.47;;;;;;;;;;5022405;28;20205;-77
2023/04/20 02:22:16;;;;;;;5.80;4.70;;;;;;;;;;5024615;28;20170;-77
2023/04/20 02:24:42;;;;;;;7.57;4.97;;;;;;;;;;5026409;28;20175;-77
2023/04/20 02:27:07;;;;;;;5.60;4.50;;;;;;;;;;5033129;28;20202;-77
2023/04/20 02:29:33;;;;;;;6.20;4.60;;;;;;;;;;5032041;28;20183;-77
2023/04/20 02:31:58;;;;;;;5.50;4.70;;;;;;;;;;5030837;28;20181;-77
2023/04/20 02:34:23;;;;;;;6.63;5.03;;;;;;;;;;5022850;28;20183;-77
2023/04/20 02:36:48;;;;;;;5.43;4.53;;;;;;;;;;5021272;28;20209;-77
2023/04/20 02:39:13;;;;;;;4.63;4.23;;;;;;;;;;5031728;28;20206;-77
2023/04/20 02:41:42;;;;;;;4.90;4.40;;;;;;;;;;5028370;28;20178;-78
2023/04/20 02:44:07;;;;;;;4.30;3.90;;;;;;;;;;5028678;28;20187;-77
2023/04/20 02:46:32;;;;;;;4.83;4.27;;;;;;;;;;5024143;28;20174;-77
2023/04/20 02:48:57;;;;;;;5.53;4.70;;;;;;;;;;5034773;28;20186;-77
2023/04/20 02:51:23;;;;;;;6.27;4.57;;;;;;;;;;5030370;28;20272;-77
2023/04/20 02:53:48;;;;;;;5.23;3.97;;;;;;;;;;5034044;28;20209;-77
2023/04/20 02:56:13;;;;;;;5.40;4.90;;;;;;;;;;5030035;28;20199;-77
2023/04/20 02:58:38;;;;;;;6.23;4.57;;;;;;;;;;5026559;28;20175;-77
2023/04/20 03:01:04;;;;;;;5.50;4.23;;;;;;;;;;5022410;28;20258;-77
2023/04/20 03:03:29;;;;;;;5.67;5.17;;;;;;;;;;5029622;28;20287;-77
2023/04/20 03:05:55;;;;;;;7.67;5.30;;;;;;;;;;5028458;28;20263;-77
2023/04/20 03:08:20;;;;;;;4.47;4.07;;;;;;;;;;5025698;28;20210;-77
2023/04/20 03:10:45;;;;;;;5.17;4.67;;;;;;;;;;5027814;28;20183;-77
2023/04/20 03:13:11;;;;;;;7.27;5.13;;;;;;;;;;5025297;28;20210;-77
2023/04/20 03:15:36;;;;;;;7.40;4.80;;;;;;;;;;5025751;28;20203;-77
2023/04/20 03:18:02;;;;;;;5.33;4.57;;;;;;;;;;5022481;28;20340;-77
2023/04/20 03:20:27;;;;;;;5.90;5.20;;;;;;;;;;5022123;28;20275;-77
2023/04/20 03:22:53;;;;;;;5.40;4.90;;;;;;;;;;5026887;28;20253;-77
2023/04/20 03:25:18;;;;;;;6.07;4.63;;;;;;;;;;5025932;28;20266;-76
2023/04/20 03:27:45;;;;;;;5.77;4.37;;;;;;;;;;5029084;28;20182;-77
2023/04/20 03:30:10;;;;;;;6.70;4.63;;;;;;;;;;5037918;28;20184;-77
2023/04/20 03:32:37;;;;;;;5.30;4.80;;;;;;;;;;5029151;28;20183;-76
2023/04/20 03:35:02;;;;;;;5.37;4.57;;;;;;;;;;5025890;28;20183;-76
2023/04/20 03:37:27;;;;;;;6.07;4.40;;;;;;;;;;5034944;28;20201;-77
2023/04/20 03:39:52;;;;;;;7.27;5.33;;;;;;;;;;5024886;28;20253;-76
2023/04/20 03:42:18;;;;;;;7.90;5.03;;;;;;;;;;5031572;28;20248;-76
2023/04/20 03:44:43;;;;;;;6.67;5.27;;;;;;;;;;5026192;28;20235;-76
2023/04/20 03:47:09;;;;;;;6.40;5.80;;;;;;;;;;5025875;28;20207;-76
2023/04/20 03:49:35;;;;;;;8.70;6.13;;;;;;;;;;5029524;28;20194;-76
2023/04/20 03:52:00;;;;;;;6.03;5.40;;;;;;;;;;5026191;28;20608;-76
2023/04/20 03:54:25;;;;;;;6.90;4.80;;;;;;;;;;5026337;28;20182;-77
2023/04/20 03:56:50;;;;;;;8.07;7.30;;;;;;;;;;5028071;28;20185;-76
2023/04/20 03:59:16;;;;;;;6.70;5.70;;;;;;;;;;5024389;28;20207;-76
2023/04/20 04:01:42;;;;;;;6.73;5.40;;;;;;;;;;5025359;28;20171;-76
2023/04/20 04:04:08;;;;;;;6.00;4.90;;;;;;;;;;5026783;28;20271;-76
2023/04/20 04:06:33;;;;;;;5.37;4.83;;;;;;;;;;5021656;28;20243;-76
2023/04/20 04:08:58;;;;;;;7.03;5.27;;;;;;;;;;5022283;28;20179;-76
2023/04/20 04:11:24;;;;;;;6.43;5.30;;;;;;;;;;5021972;28;20186;-76
2023/04/20 04:13:50;;;;;;;6.47;5.50;;;;;;;;;;5020878;28;20269;-76
2023/04/20 04:16:15;;;;;;;8.13;5.13;;;;;;;;;;5027558;28;20278;-76
2023/04/20 04:18:43;;;;;;;6.67;4.77;;;;;;;;;;5025998;28;20245;-76
2023/04/20 04:21:09;;;;;;;6.00;5.00;;;;;;;;;;5029385;28;20199;-76
2023/04/20 04:23:34;;;;;;;5.93;5.33;;;;;;;;;;5020327;28;20203;-76
2023/04/20 04:26:00;;;;;;;7.03;5.30;;;;;;;;;;5023582;28;20182;-76
2023/04/20 04:28:25;;;;;;;5.50;5.00;;;;;;;;;;5023973;28;20175;-76
2023/04/20 04:30:51;;;;;;;5.90;5.27;;;;;;;;;;5026718;28;20189;-76
2023/04/20 04:33:17;;;;;;;7.40;5.60;;;;;;;;;;5029117;28;20237;-76
2023/04/20 04:35:44;;;;;;;6.40;5.10;;;;;;;;;;5023926;28;20201;-76
2023/04/20 04:38:10;;;;;;;6.67;6.07;;;;;;;;;;5017558;28;20203;-76
2023/04/20 04:40:36;;;;;;;6.13;5.03;;;;;;;;;;5022962;28;20301;-76
2023/04/20 04:43:02;;;;;;;6.17;5.33;;;;;;;;;;5026621;28;20179;-76
2023/04/20 04:45:28;;;;;;;5.87;5.23;;;;;;;;;;5021152;28;20232;-76
2023/04/20 04:47:53;;;;;;;6.03;5.37;;;;;;;;;;5028278;28;20179;-76
2023/04/20 04:50:21;;;;;;;6.53;5.30;;;;;;;;;;5020921;28;20209;-76
2023/04/20 04:52:46;;;;;;;9.17;5.80;;;;;;;;;;5023353;28;20175;-76
2023/04/20 04:55:11;;;;;;;7.67;6.20;;;;;;;;;;5031571;28;20235;-76
2023/04/20 04:57:37;;;;;;;9.10;5.80;;;;;;;;;;5019270;28;20272;-76
2023/04/20 05:00:06;;;;;;;8.43;6.07;;;;;;;;;;5021332;28;20217;-76
2023/04/20 05:02:32;;;;;;;13.23;5.70;;;;;;;;;;5017735;28;20203;-75
2023/04/20 05:04:57;;;;;;;6.70;5.63;;;;;;;;;;5024983;28;20189;-75
2023/04/20 05:07:23;;;;;;;6.83;5.90;;;;;;;;;;5023339;28;20259;-75
2023/04/20 05:09:48;;;;;;;9.30;8.40;;;;;;;;;;5026828;28;20202;-76
2023/04/20 05:12:14;;;;;;;6.93;6.23;;;;;;;;;;5022463;28;20201;-76
2023/04/20 05:14:39;;;;;;;6.60;5.90;;;;;;;;;;5026382;28;20271;-76
2023/04/20 05:17:04;;;;;;;8.17;6.00;;;;;;;;;;5019660;28;20179;-76
2023/04/20 05:19:29;;;;;;;6.40;5.43;;;;;;;;;;5019963;28;20204;-76
2023/04/20 05:21:55;;;;;;;6.50;5.73;;;;;;;;;;5017148;28;20193;-76
2023/04/20 05:24:20;;;;;;;7.47;5.70;;;;;;;;;;5023375;28;20187;-76
2023/04/20 05:26:45;;;;;;;9.60;6.20;;;;;;;;;;5020986;28;20193;-76
2023/04/20 05:29:10;;;;;;;7.53;6.70;;;;;;;;;;5028859;28;20190;-76
2023/04/20 05:31:36;;;;;;;7.83;7.03;;;;;;;;;;5028258;28;20237;-76
2023/04/20 05:34:01;;;;;;;8.80;5.73;;;;;;;;;;5022133;28;20178;-77
2023/04/20 05:36:28;;;;;;;6.93;5.77;;;;;;;;;;5027557;28;20182;-76
2023/04/20 05:38:53;;;;;;;7.53;6.60;;;;;;;;;;5029675;28;20244;-76
2023/04/20 05:41:26;;;;;;;8.40;7.60;;;;;;;;;;5029462;28;20222;-76
2023/04/20 05:43:51;;;;;;;9.07;6.03;;;;;;;;;;5028813;28;20300;-76
2023/04/20 05:46:17;;;;;;;7.70;6.33;;;;;;;;;;5026337;28;20179;-76
2023/04/20 05:48:42;;;;;;;6.27;5.50;;;;;;;;;;5024268;28;20367;-76
2023/04/20 05:51:07;;;;;;;8.10;7.30;;;;;;;;;;5029020;28;20178;-76
2023/04/20 05:53:32;;;;;;;11.13;8.60;;;;;;;;;;5030998;28;20171;-76
2023/04/20 05:55:57;;;;;;;7.57;6.20;;;;;;;;;;5024389;28;20175;-76
2023/04/20 05:58:23;;;;;;;7.10;6.40;;;;;;;;;;5026274;28;20184;-76
2023/04/20 06:00:48;;;;;;;8.60;5.50;;;;;;;;;;5024034;28;20206;-76
2023/04/20 06:03:14;;;;;;;7.87;6.63;;;;;;;;;;5023736;28;20198;-76
2023/04/20 06:05:39;;;;;;;6.23;5.30;;;;;;;;;;5029981;28;20178;-76
2023/04/20 06:08:04;;;;;;;7.20;5.63;;;;;;;;;;5018156;28;20175;-76
2023/04/20 06:10:31;;;;;;;7.93;6.23;;;;;;;;;;5030483;28;20178;-76
2023/04/20 06:12:56;;;;;;;7.33;6.20;;;;;;;;;;5028781;28;20190;-76
2023/04/20 06:15:22;;;;;;;7.80;6.13;;;;;;;;;;5027369;28;20188;-76
2023/04/20 06:17:47;;;;;;;9.07;7.37;;;;;;;;;;5016623;28;20270;-76
2023/04/20 06:20:12;;;;;;;8.43;6.00;;;;;;;;;;5025157;28;20203;-76
2023/04/20 06:22:41;;;;;;;7.77;5.97;;;;;;;;;;5018620;28;20171;-76
2023/04/20 06:25:07;;;;;;;7.23;6.03;;;;;;;;;;5020189;28;20186;-76
2023/04/20 06:27:32;;;;;;;6.10;5.50;;;;;;;;;;5022329;28;20175;-76
2023/04/20 06:29:57;;;;;;;9.70;5.93;;;;;;;;;;5022210;28;20317;-75
2023/04/20 06:32:23;;;;;;;8.00;5.90;;;;;;;;;;5021020;28;20191;-76
2023/04/20 06:34:49;;;;;;;7.97;6.27;;;;;;;;;;5021620;28;20180;-76
2023/04/20 06:37:15;;;;;;;13.23;8.37;;;;;;;;;;5022111;28;20177;-76
2023/04/20 06:39:40;;;;;;;7.43;6.73;;;;;;;;;;5020615;28;20270;-76
2023/04/20 06:42:06;;;;;;;10.13;7.00;;;;;;;;;;5024589;28;20172;-76
2023/04/20 06:44:31;;;;;;;11.13;7.03;;;;;;;;;;5020844;28;20187;-76
2023/04/20 06:46:57;;;;;;;8.93;7.27;;;;;;;;;;5021102;28;20171;-75
2023/04/20 06:49:22;;;;;;;9.00;6.97;;;;;;;;;;5028069;28;20430;-76
2023/04/20 06:51:47;;;;;;;10.50;8.03;;;;;;;;;;5028749;28;20178;-76
2023/04/20 06:54:12;;;;;;;9.93;7.37;;;;;;;;;;5030726;28;20185;-76
2023/04/20 06:56:37;;;;;;;9.53;7.37;;;;;;;;;;5032844;28;20295;-76
2023/04/20 06:59:03;;;;;;;11.43;7.57;;;;;;;;;;5024875;28;20293;-76
2023/04/20 07:01:28;;;;;;;8.80;7.10;;;;;;;;;;5027029;28;20179;-75
2023/04/20 07:03:53;;;;;;;10.20;7.37;;;;;;;;;;5020885;28;20222;-76
2023/04/20 07:06:19;;;;;;;10.70;8.33;;;;;;;;;;5031199;28;20191;-76
2023/04/20 07:08:44;;;;;;;8.00;7.07;;;;;;;;;;5025690;28;20207;-76
2023/04/20 07:11:09;;;;;;;10.73;7.50;;;;;;;;;;5031297;28;20206;-76
2023/04/20 07:13:34;;;;;;;10.00;7.33;;;;;;;;;;5036455;28;20231;-76
2023/04/20 07:16:00;;;;;;;10.07;8.33;;;;;;;;;;5030195;28;20189;-76
2023/04/20 07:18:25;;;;;;;9.73;8.20;;;;;;;;;;5026679;28;20233;-76
2023/04/20 07:20:51;;;;;;;9.43;6.90;;;;;;;;;;5027072;28;20201;-76
2023/04/20 07:23:16;;;;;;;9.00;7.70;;;;;;;;;;5036681;28;20266;-76
2023/04/20 07:25:41;;;;;;;8.03;6.90;;;;;;;;;;5027434;28;20183;-76
2023/04/20 07:28:06;;;;;;;7.63;6.83;;;;;;;;;;5021199;28;20175;-76
2023/04/20 07:30:32;;;;;;;9.10;7.07;;;;;;;;;;5024801;28;20390;-76
2023/04/20 07:32:57;;;;;;;9.10;7.87;;;;;;;;;;5028169;28;20206;-76
2023/04/20 07:35:22;;;;;;;9.40;7.33;;;;;;;;;;5029003;28;20179;-76
2023/04/20 07:37:47;;;;;;;9.00;7.53;;;;;;;;;;5030291;28;20183;-76
2023/04/20 07:40:13;;;;;;;8.43;7.33;;;;;;;;;;5024888;28;20321;-76
2023/04/20 07:42:38;;;;;;;9.60;7.40;;;;;;;;;;5027303;28;20209;-76
2023/04/20 07:45:04;;;;;;;9.13;7.90;;;;;;;;;;5026899;28;20175;-76
2023/04/20 07:47:29;;;;;;;9.97;8.10;;;;;;;;;;5024401;28;20260;-76
2023/04/20 07:49:56;;;;;;;10.70;9.43;;;;;;;;;;5029133;28;20182;-76
2023/04/20 07:52:21;;;;;;;10.27;8.07;;;;;;;;;;5024730;28;20183;-76
2023/04/20 07:54:47;;;;;;;9.33;8.20;;;;;;;;;;5033319;28;20289;-76
2023/04/20 07:57:12;;;;;;;9.83;8.00;;;;;;;;;;5027734;28;20266;-77
2023/04/20 07:59:39;;;;;;;10.63;7.80;;;;;;;;;;5027082;28;20201;-77
2023/04/20 08:02:05;;;;;;;9.63;8.27;;;;;;;;;;5025999;28;20249;-76
2023/04/20 08:04:30;;;;;;;11.40;9.93;;;;;;;;;;5031013;28;20226;-76
2023/04/20 08:06:55;;;;;;;10.73;7.87;;;;;;;;;;5029626;28;20179;-77
2023/04/20 08:09:21;;;;;;;9.77;7.20;;;;;;;;;;5032507;28;20192;-76
2023/04/20 08:11:46;;;;;;;9.10;7.77;;;;;;;;;;5024579;28;20188;-77
2023/04/20 08:14:11;;;;;;;11.50;7.50;;;;;;;;;;5025045;28;20182;-78
2023/04/20 08:16:37;;;;;;;14.17;7.00;;;;;;;;;;5031295;28;20171;-77
2023/04/20 08:19:08;;;;;;;11.53;9.43;;;;;;;;;;5027603;28;20215;-77
2023/04/20 08:21:34;;;;;;;9.57;7.73;;;;;;;;;;5027697;28;20191;-77
2023/04/20 08:24:00;;;;;;;10.67;8.47;;;;;;;;;;5019058;28;20172;-77
2023/04/20 08:26:26;;;;;;;9.40;7.13;;;;;;;;;;5019308;28;20192;-77
2023/04/20 08:28:51;;;;;;;11.73;8.23;;;;;;;;;;5020176;28;20293;-77
2023/04/20 08:31:17;;;;;;;11.87;8.47;;;;;;;;;;5014180;28;20251;-77
2023/04/20 08:33:42;;;;;;;11.77;7.40;;;;;;;;;;5021880;28;20284;-75
2023/04/20 08:36:07;;;;;;;9.77;8.47;;;;;;;;;;5024714;28;20176;-75
2023/04/20 08:38:32;;;;;;;10.87;7.63;;;;;;;;;;5030257;28;20190;-75
2023/04/20 08:40:58;;;;;;;9.47;8.10;;;;;;;;;;5022699;28;20198;-75
2023/04/20 08:43:23;;;;;;;12.27;8.63;;;;;;;;;;5019525;28;20177;-75
2023/04/20 08:45:50;;;;;;;13.70;9.17;;;;;;;;;;5018465;28;20227;-75
2023/04/20 08:48:16;;;;;;;9.70;8.03;;;;;;;;;;5022628;28;20176;-75
2023/04/20 08:50:41;;;;;;;11.57;8.40;;;;;;;;;;5020432;28;20242;-75
2023/04/20 08:53:08;;;;;;;11.20;7.27;;;;;;;;;;5029449;28;20177;-75
2023/04/20 08:55:33;;;;;;;9.33;7.73;;;;;;;;;;5017892;28;20193;-75
2023/04/20 08:57:59;;;;;;;9.77;7.50;;;;;;;;;;5029973;28;20189;-75
2023/04/20 09:00:24;;;;;;;8.70;7.80;;;;;;;;;;5018110;28;20281;-75
2023/04/20 09:02:50;;;;;;;10.63;8.67;;;;;;;;;;5027469;28;20207;-75
2023/04/20 09:05:23;;;;;;;7.50;6.70;;;;;;;;;;5030786;28;20185;-75
2023/04/20 09:07:52;;;;;;;7.83;7.03;;;;;;;;;;5021187;28;20186;-76
2023/04/20 09:10:17;;;;;;;13.30;11.93;;;;;;;;;;5028186;28;20185;-77
2023/04/20 09:12:42;;;;;;;8.90;8.00;;;;;;;;;;5021604;28;20186;-77
2023/04/20 09:15:08;;;;;;;10.33;8.40;;;;;;;;;;5029271;28;20169;-77
2023/04/20 09:17:34;;;;;;;8.77;7.83;;;;;;;;;;5018219;28;20253;-77
2023/04/20 09:20:00;;;;;;;9.53;6.90;;;;;;;;;;5027740;28;20206;-77
2023/04/20 09:22:30;;;;;;;8.73;7.17;;;;;;;;;;5029654;28;20186;-77
2023/04/20 09:24:55;;;;;;;10.27;8.40;;;;;;;;;;5030541;28;20181;-77
2023/04/20 09:27:22;;;;;;;8.47;7.47;;;;;;;;;;5030371;28;20190;-77
2023/04/20 09:30:00;;;;;;;9.37;7.67;;;;;;;;;;5028867;28;20179;-75
2023/04/20 09:32:27;;;;;;;11.97;8.47;;;;;;;;;;5023136;28;20258;-76
2023/04/20 09:34:52;;;;;;;9.97;7.90;;;;;;;;;;5025724;28;20177;-75
2023/04/20 09:37:18;;;;;;;9.60;7.87;;;;;;;;;;5025832;28;20321;-75
2023/04/20 09:39:44;;;;;;;11.37;8.60;;;;;;;;;;5029173;28;20193;-75
2023/04/20 09:42:10;;;;;;;8.63;6.23;;;;;;;;;;5026580;28;20276;-77
2023/04/20 09:44:36;;;;;;;10.70;8.03;;;;;;;;;;5022362;28;20235;-75
2023/04/20 09:47:02;;;;;;;11.93;9.20;;;;;;;;;;5017940;28;20181;-75
2023/04/20 09:49:27;;;;;;;9.57;8.27;;;;;;;;;;5023889;28;20193;-75
2023/04/20 09:51:53;;;;;;;9.17;8.27;;;;;;;;;;5027793;28;20187;-76
2023/04/20 09:54:18;;;;;;;8.80;7.33;;;;;;;;;;5032620;28;20170;-76
2023/04/20 09:56:44;;;;;;;9.03;8.03;;;;;;;;;;5021945;28;20187;-75
2023/04/20 09:59:10;;;;;;;12.03;8.40;;;;;;;;;;5021439;28;20199;-76
2023/04/20 10:01:36;;;;;;;9.33;8.43;;;;;;;;;;5022335;28;20216;-76
2023/04/20 10:04:05;;;;;;;8.53;7.57;;;;;;;;;;5031614;28;20202;-75
2023/04/20 10:06:31;;;;;;;8.00;7.20;;;;;;;;;;5028045;28;20275;-75
2023/04/20 10:08:57;;;;;;;8.63;6.53;;;;;;;;;;5032157;28;20173;-75
2023/04/20 10:11:29;;;;;;;12.87;7.47;;;;;;;;;;5025817;28;20203;-75
2023/04/20 10:13:55;;;;;;;10.30;7.83;;;;;;;;;;5016856;28;20186;-75
2023/04/20 10:16:20;;;;;;;11.50;8.30;;;;;;;;;;5022418;28;20182;-75
2023/04/20 10:18:56;;;;;;;10.57;7.90;;;;;;;;;;5027593;28;20261;-75
2023/04/20 10:21:21;;;;;;;12.43;7.67;;;;;;;;;;5020558;28;20178;-75
2023/04/20 10:23:47;;;;;;;11.37;8.07;;;;;;;;;;5021761;28;20310;-75
2023/04/20 10:26:13;;;;;;;10.30;7.37;;;;;;;;;;5028417;28;20194;-75
2023/04/20 10:28:39;;;;;;;10.70;7.57;;;;;;;;;;5039301;28;20180;-75
2023/04/20 10:31:06;;;;;;;8.80;7.40;;;;;;;;;;5027491;28;20181;-75
2023/04/20 10:33:31;;;;;;;9.50;8.43;;;;;;;;;;5025598;28;20176;-75
2023/04/20 10:35:58;;;;;;;8.63;6.83;;;;;;;;;;5031286;28;20178;-75
2023/04/20 10:38:30;;;;;;;8.60;7.80;;;;;;;;;;5027897;28;20181;-75
2023/04/20 10:40:55;;;;;;;11.53;8.57;;;;;;;;;;5019167;28;20273;-75
2023/04/20 10:43:21;;;;;;;9.53;8.47;;;;;;;;;;5033861;28;20254;-75
2023/04/20 10:45:47;;;;;;;10.10;8.27;;;;;;;;;;5031288;28;20178;-74
2023/04/20 10:48:12;;;;;;;9.73;7.77;;;;;;;;;;5033376;28;20228;-75
2023/04/20 10:50:37;;;;;;;9.73;8.50;;;;;;;;;;5034920;28;20182;-75
2023/04/20 10:53:04;;;;;;;9.07;7.73;;;;;;;;;;5029876;28;20177;-75
2023/04/20 10:55:29;;;;;;;8.67;7.67;;;;;;;;;;5027919;28;20190;-75
2023/04/20 10:57:54;;;;;;;9.53;7.30;;;;;;;;;;5030013;28;20273;-75
2023/04/20 11:00:21;;;;;;;7.87;6.77;;;;;;;;;;5031983;28;20272;-75
2023/04/20 11:02:47;;;;;;;12.13;8.93;;;;;;;;;;5030227;28;20193;-75
2023/04/20 11:05:13;;;;;;;10.43;9.27;;;;;;;;;;5036650;28;20172;-75
2023/04/20 11:07:46;;;;;;;10.53;8.57;;;;;;;;;;5030743;28;20180;-75
2023/04/20 11:10:11;;;;;;;9.53;8.20;;;;;;;;;;5034324;28;20185;-75
2023/04/20 11:12:39;;;;;;;12.97;10.03;;;;;;;;;;5028223;28;20179;-76
2023/04/20 11:15:05;;;;;;;10.83;9.70;;;;;;;;;;5029804;28;20178;-75
2023/04/20 11:17:33;;;;;;;12.30;9.17;;;;;;;;;;5022177;28;20225;-75
2023/04/20 11:20:14;;;;;;;12.27;9.03;;;;;;;;;;5025725;28;20255;-75
2023/04/20 11:22:40;;;;;;;14.47;9.07;;;;;;;;;;5025673;28;20239;-75
2023/04/20 11:25:06;;;;;;;11.67;9.63;;;;;;;;;;5035561;28;20189;-75
2023/04/20 11:27:32;;;;;;;12.70;10.07;;;;;;;;;;5027542;28;20179;-75
2023/04/20 11:29:58;;;;;;;11.77;9.00;;;;;;;;;;5026101;28;20172;-75
2023/04/20 11:32:24;;;;;;;11.00;8.57;;;;;;;;;;5025475;28;20182;-75
2023/04/20 11:34:57;;;;;;;9.20;8.17;;;;;;;;;;5023131;28;20189;-75
2023/04/20 11:37:22;;;;;;;10.60;9.27;;;;;;;;;;5030881;28;20180;-74
2023/04/20 11:39:57;;;;;;;10.53;9.07;;;;;;;;;;5024964;28;20264;-75
2023/04/20 11:42:22;;;;;;;11.10;9.80;;;;;;;;;;5022308;28;20196;-75
2023/04/20 11:44:47;;;;;;;8.60;7.50;;;;;;;;;;5025196;28;20196;-75
2023/04/20 11:47:13;;;;;;;12.23;10.57;;;;;;;;;;5030064;28;20181;-75
2023/04/20 11:49:39;;;;;;;12.80;10.37;;;;;;;;;;5030877;28;20194;-75
2023/04/20 11:52:04;;;;;;;11.87;10.00;;;;;;;;;;5034535;28;20186;-75
2023/04/20 11:54:32;;;;;;;12.37;10.80;;;;;;;;;;5033024;28;20182;-75
2023/04/20 11:56:58;;;;;;;13.87;11.07;;;;;;;;;;5028648;28;20185;-75
2023/04/20 11:59:24;;;;;;;13.70;10.83;;;;;;;;;;5023928;28;20220;-75
2023/04/20 12:01:49;;;;;;;13.77;11.47;;;;;;;;;;5028308;28;20206;-75
2023/04/20 12:04:14;;;;;;;13.80;12.30;;;;;;;;;;5028845;28;20321;-75
2023/04/20 12:06:40;;;;;;;11.07;8.83;;;;;;;;;;5030422;28;20174;-75
2023/04/20 12:09:05;;;;;;;12.23;10.13;;;;;;;;;;5036208;28;20184;-75
2023/04/20 12:11:30;;;;;;;12.23;10.23;;;;;;;;;;5024389;28;20272;-75
2023/04/20 12:13:56;;;;;;;12.83;9.80;;;;;;;;;;5027539;28;20204;-75
2023/04/20 12:16:21;;;;;;;12.60;10.27;;;;;;;;;;5023836;28;20258;-75
2023/04/20 12:18:47;;;;;;;10.40;9.33;;;;;;;;;;5022355;28;20233;-75
2023/04/20 12:21:12;;;;;;;13.27;10.17;;;;;;;;;;5027629;28;20264;-75
2023/04/20 12:23:38;;;;;;;11.57;9.43;;;;;;;;;;5035422;28;20193;-75
2023/04/20 12:26:03;;;;;;;12.13;9.80;;;;;;;;;;5023666;28;20209;-75
2023/04/20 12:28:29;;;;;;;13.80;9.93;;;;;;;;;;5025288;28;20163;-75
2023/04/20 12:30:54;;;;;;;11.07;9.97;;;;;;;;;;5025453;28;20182;-75
2023/04/20 12:33:20;;;;;;;12.50;9.97;;;;;;;;;;5025370;28;20208;-75
2023/04/20 12:35:45;;;;;;;12.63;11.33;;;;;;;;;;5026258;28;20176;-75
2023/04/20 12:38:13;;;;;;;11.80;9.53;;;;;;;;;;5036858;28;20190;-75
2023/04/20 12:40:39;;;;;;;11.10;9.87;;;;;;;;;;5016230;28;20241;-75
2023/04/20 12:43:04;;;;;;;12.27;10.97;;;;;;;;;;5034911;28;20194;-75
2023/04/20 12:45:29;;;;;;;11.20;10.10;;;;;;;;;;5029416;28;20255;-75
2023/04/20 12:47:55;;;;;;;10.93;9.37;;;;;;;;;;5030365;28;20253;-75
2023/04/20 12:50:20;;;;;;;9.27;8.27;;;;;;;;;;5030041;28;20228;-74
2023/04/20 12:52:45;;;;;;;10.53;8.93;;;;;;;;;;5024987;28;20209;-74
2023/04/20 12:55:11;;;;;;;9.73;8.20;;;;;;;;;;5028505;28;20183;-75
2023/04/20 12:57:36;;;;;;;9.43;8.43;;;;;;;;;;5027444;28;20178;-75
2023/04/20 13:00:03;;;;;;;8.83;7.73;;;;;;;;;;5028287;28;20218;-75
2023/04/20 13:02:28;;;;;;;8.53;7.60;;;;;;;;;;5034414;28;20197;-75
2023/04/20 13:04:54;;;;;;;10.70;8.63;;;;;;;;;;5029158;28;20189;-75
2023/04/20 13:07:19;;;;;;;9.67;8.00;;;;;;;;;;5036287;28;20226;-75
2023/04/20 13:09:44;;;;;;;10.50;7.90;;;;;;;;;;5031809;28;20175;-75
2023/04/20 13:12:10;;;;;;;10.80;8.07;;;;;;;;;;5030676;28;20269;-74
2023/04/20 13:14:35;;;;;;;13.30;9.33;;;;;;;;;;5020180;28;20182;-75
2023/04/20 13:17:00;;;;;;;10.70;9.47;;;;;;;;;;5033656;28;20196;-75
2023/04/20 13:19:27;;;;;;;9.77;8.73;;;;;;;;;;5032091;28;20200;-75
2023/04/20 13:21:54;;;;;;;9.77;7.57;;;;;;;;;;5024489;28;20301;-75
2023/04/20 13:24:19;;;;;;;9.97;8.03;;;;;;;;;;5032530;28;20273;-75
2023/04/20 13:26:45;;;;;;;8.83;7.93;;;;;;;;;;5027961;28;20209;-75
2023/04/20 13:29:10;;;;;;;14.93;8.83;;;;;;;;;;5029366;28;20179;-75
2023/04/20 13:31:36;;;;;;;7.10;6.40;;;;;;;;;;5027401;28;20193;-75
2023/04/20 13:34:01;;;;;;;9.47;7.23;;;;;;;;;;5023679;28;20208;-75
2023/04/20 13:36:27;;;;;;;7.57;6.73;;;;;;;;;;5034453;28;20201;-75
2023/04/20 13:38:52;;;;;;;8.60;6.90;;;;;;;;;;5023833;28;20182;-75
2023/04/20 13:41:18;;;;;;;8.70;7.67;;;;;;;;;;5034844;28;20228;-75
2023/04/20 13:43:43;;;;;;;9.10;7.70;;;;;;;;;;5024816;28;20233;-75
2023/04/20 13:46:09;;;;;;;10.70;8.53;;;;;;;;;;5028690;28;20285;-75
2023/04/20 13:48:34;;;;;;;11.47;9.20;;;;;;;;;;5028365;28;20178;-75
2023/04/20 13:50:59;;;;;;;10.60;9.47;;;;;;;;;;5028514;28;20262;-75
2023/04/20 13:53:25;;;;;;;12.23;9.13;;;;;;;;;;5022766;28;20180;-75
2023/04/20 13:55:50;;;;;;;14.17;7.90;;;;;;;;;;5024846;28;20203;-75
2023/04/20 13:58:15;;;;;;;9.80;8.47;;;;;;;;;;5025952;28;20272;-75
2023/04/20 14:00:40;;;;;;;13.37;10.50;;;;;;;;;;5039234;28;20202;-75
2023/04/20 14:03:07;;;;;;;11.30;9.57;;;;;;;;;;5025489;28;20192;-75
2023/04/20 14:05:32;;;;;;;11.30;8.57;;;;;;;;;;5029647;28;20171;-74
2023/04/20 14:08:00;;;;;;;10.57;9.47;;;;;;;;;;5025116;28;20206;-74
2023/04/20 14:10:26;;;;;;;13.03;9.83;;;;;;;;;;5029575;28;20186;-74
2023/04/20 14:12:51;;;;;;;9.93;8.93;;;;;;;;;;5024228;28;20189;-74
2023/04/20 14:15:16;;;;;;;11.17;9.87;;;;;;;;;;5025755;28;20269;-75
2023/04/20 14:17:41;;;;;;;9.80;8.80;;;;;;;;;;5029632;28;20239;-74
2023/04/20 14:20:08;;;;;;;10.33;9.17;;;;;;;;;;5027519;28;20215;-74
2023/04/20 14:22:35;;;;;;;10.37;9.13;;;;;;;;;;5035567;28;20284;-74
2023/04/20 14:25:01;;;;;;;10.57;9.47;;;;;;;;;;5029966;28;20222;-74
2023/04/20 14:27:26;;;;;;;11.93;9.53;;;;;;;;;;5035573;28;20177;-74
2023/04/20 14:29:51;;;;;;;11.63;9.43;;;;;;;;;;5031931;28;20235;-74